createdAt,value
2018-12-12T00:00:35.101Z,174.27
2018-12-12T00:02:42.325Z,193.80
2018-12-12T00:04:49.270Z,196.37
2018-12-12T00:06:57.291Z,200.40
2018-12-12T00:09:04.630Z,197.37
2018-12-12T00:11:12.585Z,197.43
2018-12-12T00:13:22.836Z,206.10
2018-12-12T00:15:32.173Z,197.67
2018-12-12T00:17:39.743Z,227.63
2018-12-12T00:19:47.250Z,209.27
2018-12-12T00:21:54.223Z,210.63
2018-12-12T00:24:01.065Z,189.80
2018-12-12T00:26:07.822Z,185.67
2018-12-12T00:28:15.159Z,168.37
2018-12-12T00:30:22.474Z,176.97
2018-12-12T00:32:29.660Z,177.77
2018-12-12T00:34:36.522Z,179.80
2018-12-12T00:36:44.070Z,168.90
2018-12-12T00:38:51.095Z,155.70
2018-12-12T00:40:58.420Z,177.13
2018-12-12T00:43:05.188Z,169.27
2018-12-12T00:45:13.757Z,191.80
2018-12-12T00:47:20.897Z,190.70
2018-12-12T00:49:28.288Z,187.53
2018-12-12T00:51:35.437Z,190.07
2018-12-12T00:53:43.951Z,183.03
2018-12-12T00:55:51.177Z,191.50
2018-12-12T00:57:58.290Z,178.57
2018-12-12T01:00:09.366Z,166.60
2018-12-12T01:02:16.258Z,171.07
2018-12-12T01:04:23.595Z,188.87
2018-12-12T01:06:31.944Z,196.60
2018-12-12T01:08:39.022Z,200.17
2018-12-12T01:10:47.302Z,200.83
2018-12-12T01:12:55.103Z,205.00
2018-12-12T01:19:40.255Z,221.50
2018-12-12T01:26:16.864Z,191.10
2018-12-12T01:30:45.909Z,174.00
2018-12-12T01:37:41.792Z,174.50
2018-12-12T01:39:57.446Z,178.23
2018-12-12T01:42:12.414Z,190.80
2018-12-12T01:51:46.758Z,197.77
2018-12-12T02:21:02.476Z,212.50
2018-12-12T03:03:28.700Z,219.87
2018-12-12T03:15:33.921Z,223.53
2018-12-12T03:24:18.717Z,220.40
2018-12-12T03:31:06.163Z,183.30
2018-12-12T03:37:40.889Z,168.30
2018-12-12T03:44:18.783Z,152.33
2018-12-12T03:55:22.701Z,207.53
2018-12-12T03:59:44.878Z,212.50
2018-12-12T04:01:53.514Z,225.97
2018-12-12T04:04:00.288Z,221.73
2018-12-12T04:06:07.274Z,220.17
2018-12-12T04:08:14.340Z,221.97
2018-12-12T04:10:21.421Z,232.70
2018-12-12T04:12:28.839Z,236.93
2018-12-12T04:14:35.786Z,221.37
2018-12-12T04:16:42.930Z,242.23
2018-12-12T04:18:49.837Z,226.40
2018-12-12T04:20:57.050Z,230.97
2018-12-12T04:23:04.754Z,217.90
2018-12-12T04:25:12.121Z,242.10
2018-12-12T04:27:19.039Z,224.00
2018-12-12T04:29:26.685Z,218.23
2018-12-12T04:31:33.928Z,231.83
2018-12-12T04:33:41.272Z,231.90
2018-12-12T04:35:48.526Z,235.40
2018-12-12T04:37:55.397Z,229.17
2018-12-12T04:40:02.119Z,215.47
2018-12-12T04:42:09.434Z,186.13
2018-12-12T04:44:16.170Z,194.17
2018-12-12T04:46:22.976Z,188.57
2018-12-12T04:48:29.856Z,207.27
2018-12-12T04:50:37.073Z,199.53
2018-12-12T04:52:44.118Z,179.37
2018-12-12T04:54:50.902Z,186.70
2018-12-12T04:56:58.117Z,167.03
2018-12-12T04:59:05.219Z,159.80
2018-12-12T05:01:12.042Z,165.80
2018-12-12T05:03:19.924Z,159.80
2018-12-12T05:05:26.760Z,190.70
2018-12-12T05:07:33.730Z,208.67
2018-12-12T05:09:40.450Z,215.60
2018-12-12T05:11:47.221Z,215.87
2018-12-12T05:13:53.981Z,222.13
2018-12-12T05:16:00.984Z,218.90
2018-12-12T05:18:07.706Z,225.23
2018-12-12T05:20:14.646Z,242.90
2018-12-12T05:22:21.917Z,234.37
2018-12-12T05:24:28.863Z,231.20
2018-12-12T05:26:35.933Z,223.30
2018-12-12T05:28:42.716Z,229.33
2018-12-12T05:30:49.146Z,228.43
2018-12-12T05:32:56.106Z,230.60
2018-12-12T05:35:02.912Z,225.73
2018-12-12T05:37:09.944Z,226.03
2018-12-12T05:39:17.616Z,230.83
2018-12-12T05:41:24.721Z,235.63
2018-12-12T05:43:31.277Z,241.83
2018-12-12T05:45:38.576Z,244.77
2018-12-12T05:47:45.407Z,234.63
2018-12-12T05:49:52.072Z,232.47
2018-12-12T05:51:58.837Z,214.33
2018-12-12T05:54:06.195Z,202.00
2018-12-12T05:56:14.295Z,178.10
2018-12-12T05:58:21.170Z,169.33
2018-12-12T06:00:28.199Z,170.57
2018-12-12T06:02:35.144Z,169.20
2018-12-12T06:04:42.041Z,171.97
2018-12-12T06:06:48.895Z,214.20
2018-12-12T06:08:55.683Z,219.67
2018-12-12T06:11:02.369Z,215.90
2018-12-12T06:13:09.318Z,236.17
2018-12-12T06:15:16.172Z,223.33
2018-12-12T06:17:22.789Z,242.03
2018-12-12T06:19:30.080Z,234.77
2018-12-12T06:21:36.900Z,235.77
2018-12-12T06:23:43.926Z,244.37
2018-12-12T06:25:50.709Z,244.37
2018-12-12T06:27:57.469Z,251.80
2018-12-12T06:30:04.877Z,256.90
2018-12-12T06:32:11.637Z,250.87
2018-12-12T06:34:18.282Z,256.43
2018-12-12T06:36:25.197Z,248.13
2018-12-12T06:38:32.299Z,241.77
2018-12-12T06:40:39.328Z,218.50
2018-12-12T06:42:45.995Z,206.33
2018-12-12T06:44:53.131Z,178.77
2018-12-12T06:47:00.666Z,172.13
2018-12-12T06:49:07.647Z,169.00
2018-12-12T06:51:14.270Z,173.20
2018-12-12T06:53:20.820Z,172.93
2018-12-12T06:55:27.693Z,186.43
2018-12-12T06:57:34.787Z,200.13
2018-12-12T06:59:41.833Z,209.67
2018-12-12T07:01:48.846Z,216.40
2018-12-12T07:03:55.801Z,222.87
2018-12-12T07:06:02.450Z,228.57
2018-12-12T07:08:09.366Z,233.80
2018-12-12T07:10:16.444Z,220.77
2018-12-12T07:12:23.469Z,239.33
2018-12-12T07:14:30.445Z,241.03
2018-12-12T07:16:37.418Z,241.07
2018-12-12T07:18:44.788Z,245.17
2018-12-12T07:20:51.514Z,249.10
2018-12-12T07:22:58.333Z,257.10
2018-12-12T07:25:05.358Z,255.90
2018-12-12T07:27:12.157Z,263.17
2018-12-12T07:29:19.110Z,237.23
2018-12-12T07:31:25.786Z,236.00
2018-12-12T07:33:32.889Z,217.20
2018-12-12T07:35:39.713Z,198.87
2018-12-12T07:37:46.760Z,181.47
2018-12-12T07:39:54.459Z,175.30
2018-12-12T07:42:02.282Z,170.90
2018-12-12T07:44:09.125Z,170.87
2018-12-12T07:46:16.294Z,194.83
2018-12-12T07:48:23.274Z,196.63
2018-12-12T07:50:30.741Z,216.17
2018-12-12T07:52:37.538Z,228.93
2018-12-12T07:54:44.226Z,225.97
2018-12-12T07:56:51.421Z,227.97
2018-12-12T07:58:58.294Z,235.23
2018-12-12T08:01:05.346Z,232.03
2018-12-12T08:03:12.094Z,246.20
2018-12-12T08:05:19.005Z,246.37
2018-12-12T08:07:25.886Z,259.27
2018-12-12T08:09:33.013Z,260.43
2018-12-12T08:11:40.035Z,265.00
2018-12-12T08:13:46.758Z,254.47
2018-12-12T08:15:53.617Z,272.63
2018-12-12T08:18:00.462Z,252.17
2018-12-12T08:20:07.485Z,255.83
2018-12-12T08:22:14.135Z,262.73
2018-12-12T08:24:21.157Z,280.23
2018-12-12T08:26:28.322Z,269.23
2018-12-12T08:28:35.079Z,250.10
2018-12-12T08:30:41.853Z,242.93
2018-12-12T08:32:48.582Z,212.30
2018-12-12T08:34:55.263Z,198.40
2018-12-12T08:37:02.705Z,184.93
2018-12-12T08:39:10.290Z,171.23
2018-12-12T08:41:16.914Z,171.50
2018-12-12T08:43:23.625Z,161.30
2018-12-12T08:45:30.629Z,161.83
2018-12-12T08:47:38.063Z,169.07
2018-12-12T08:49:44.898Z,196.33
2018-12-12T08:51:51.847Z,182.73
2018-12-12T08:53:58.711Z,197.70
2018-12-12T08:56:06.078Z,206.50
2018-12-12T08:58:12.889Z,228.60
2018-12-12T09:00:19.867Z,232.50
2018-12-12T09:02:26.686Z,245.03
2018-12-12T09:04:33.457Z,219.70
2018-12-12T09:06:40.690Z,196.67
2018-12-12T09:08:48.227Z,169.40
2018-12-12T09:10:55.009Z,175.50
2018-12-12T09:13:01.727Z,168.30
2018-12-12T09:15:08.930Z,164.27
2018-12-12T09:17:15.860Z,162.43
2018-12-12T09:19:22.886Z,155.63
2018-12-12T09:21:30.424Z,151.07
2018-12-12T09:23:38.322Z,152.00
2018-12-12T09:25:45.192Z,150.83
2018-12-12T09:27:52.002Z,188.17
2018-12-12T09:29:59.106Z,184.40
2018-12-12T09:32:05.850Z,199.30
2018-12-12T09:34:12.745Z,219.63
2018-12-12T09:36:19.961Z,220.23
2018-12-12T09:38:27.121Z,229.07
2018-12-12T09:40:34.081Z,244.87
2018-12-12T09:42:40.615Z,235.40
2018-12-12T09:44:47.622Z,239.00
2018-12-12T09:46:54.854Z,223.57
2018-12-12T09:49:01.762Z,237.37
2018-12-12T09:51:08.631Z,251.20
2018-12-12T09:53:15.661Z,240.70
2018-12-12T09:55:22.390Z,239.27
2018-12-12T09:57:29.280Z,231.53
2018-12-12T09:59:36.011Z,246.57
2018-12-12T10:01:42.838Z,212.47
2018-12-12T10:03:53.174Z,174.87
2018-12-12T10:06:00.230Z,174.87
2018-12-12T10:08:07.062Z,181.60
2018-12-12T10:10:14.080Z,172.13
2018-12-12T10:12:21.087Z,160.50
2018-12-12T10:14:27.678Z,189.80
2018-12-12T10:16:34.502Z,187.90
2018-12-12T10:18:41.491Z,208.30
2018-12-12T10:20:48.375Z,180.67
2018-12-12T10:22:55.226Z,163.80
2018-12-12T10:25:02.139Z,157.70
2018-12-12T10:27:09.602Z,152.93
2018-12-12T10:29:17.033Z,149.40
2018-12-12T10:31:24.338Z,153.37
2018-12-12T10:33:37.439Z,192.43
2018-12-12T10:35:40.493Z,195.00
2018-12-12T10:37:47.510Z,207.23
2018-12-12T10:39:54.296Z,242.23
2018-12-12T10:42:01.045Z,233.97
2018-12-12T10:44:07.966Z,235.37
2018-12-12T10:46:14.735Z,233.73
2018-12-12T10:48:22.697Z,236.70
2018-12-12T10:50:29.861Z,246.17
2018-12-12T10:52:37.160Z,247.47
2018-12-12T10:54:43.973Z,258.73
2018-12-12T10:56:50.730Z,252.13
2018-12-12T10:58:57.649Z,250.37
2018-12-12T11:01:08.806Z,257.97
2018-12-12T11:03:52.656Z,266.53
2018-12-12T11:05:59.375Z,254.67
2018-12-12T11:08:06.410Z,253.83
2018-12-12T11:10:13.182Z,253.33
2018-12-12T11:12:20.124Z,254.53
2018-12-12T11:14:26.870Z,256.37
2018-12-12T11:16:33.812Z,249.17
2018-12-12T11:18:40.623Z,239.47
2018-12-12T11:20:47.325Z,239.40
2018-12-12T11:22:54.877Z,200.03
2018-12-12T11:25:01.929Z,181.53
2018-12-12T11:27:08.626Z,172.83
2018-12-12T11:29:15.326Z,181.83
2018-12-12T11:31:22.162Z,169.20
2018-12-12T11:33:28.874Z,160.70
2018-12-12T11:35:35.927Z,169.30
2018-12-12T11:37:43.474Z,156.17
2018-12-12T11:39:50.289Z,156.87
2018-12-12T11:41:57.158Z,151.53
2018-12-12T11:44:03.849Z,147.53
2018-12-12T11:46:11.149Z,161.53
2018-12-12T11:48:17.982Z,190.43
2018-12-12T11:50:25.039Z,224.73
2018-12-12T11:52:31.757Z,217.23
2018-12-12T11:54:38.742Z,234.50
2018-12-12T11:56:45.634Z,246.93
2018-12-12T11:58:52.669Z,243.73
2018-12-12T12:01:00.123Z,253.13
2018-12-12T12:03:06.377Z,237.60
2018-12-12T12:05:13.318Z,251.07
2018-12-12T12:07:20.225Z,246.27
2018-12-12T12:09:27.270Z,265.00
2018-12-12T12:11:33.940Z,244.83
2018-12-12T12:13:40.586Z,259.47
2018-12-12T12:15:47.454Z,250.03
2018-12-12T12:17:54.371Z,277.47
2018-12-12T12:20:01.138Z,262.73
2018-12-12T12:22:07.906Z,255.57
2018-12-12T12:24:14.610Z,265.30
2018-12-12T12:26:21.971Z,256.67
2018-12-12T12:28:28.917Z,252.80
2018-12-12T12:30:35.895Z,201.03
2018-12-12T12:32:42.737Z,184.93
2018-12-12T12:34:49.791Z,186.17
2018-12-12T12:36:57.694Z,174.60
2018-12-12T12:39:05.918Z,164.33
2018-12-12T12:41:13.481Z,155.53
2018-12-12T12:43:20.436Z,170.80
2018-12-12T12:45:29.179Z,162.80
2018-12-12T12:47:36.152Z,152.43
2018-12-12T12:49:43.053Z,155.63
2018-12-12T12:51:49.775Z,156.67
2018-12-12T12:53:57.327Z,156.80
2018-12-12T12:56:04.272Z,160.47
2018-12-12T12:58:11.070Z,152.03
2018-12-12T13:00:17.833Z,149.40
2018-12-12T13:02:25.390Z,150.13
2018-12-12T13:04:32.579Z,148.90
2018-12-12T13:06:39.341Z,149.57
2018-12-12T13:08:46.276Z,150.80
2018-12-12T13:10:53.101Z,147.93
2018-12-12T13:13:00.334Z,152.93
2018-12-12T13:15:07.666Z,147.33
2018-12-12T13:17:15.103Z,142.30
2018-12-12T13:19:21.953Z,141.33
2018-12-12T13:21:28.693Z,142.60
2018-12-12T13:23:35.630Z,130.87
2018-12-12T13:25:42.966Z,222.93
2018-12-12T13:27:49.903Z,145.23
2018-12-12T13:29:57.480Z,176.30
2018-12-12T13:32:04.341Z,188.47
2018-12-12T13:34:16.231Z,185.63
2018-12-12T13:36:20.270Z,220.20
2018-12-12T13:38:27.286Z,234.50
2018-12-12T13:40:33.942Z,217.63
2018-12-12T13:42:41.002Z,233.67
2018-12-12T13:44:47.826Z,226.53
2018-12-12T13:46:54.705Z,237.43
2018-12-12T13:49:01.673Z,242.00
2018-12-12T13:51:08.619Z,243.07
2018-12-12T13:53:15.601Z,247.67
2018-12-12T13:55:22.476Z,233.37
2018-12-12T13:57:29.146Z,247.00
2018-12-12T13:59:36.201Z,249.90
2018-12-12T14:01:43.185Z,194.70
2018-12-12T14:03:50.029Z,183.07
2018-12-12T14:05:56.994Z,161.17
2018-12-12T14:08:03.727Z,176.00
2018-12-12T14:10:10.341Z,167.73
2018-12-12T14:12:17.658Z,168.30
2018-12-12T14:14:24.287Z,156.27
2018-12-12T14:16:31.084Z,167.83
2018-12-12T14:18:37.964Z,163.00
2018-12-12T14:20:44.707Z,137.23
2018-12-12T14:22:51.553Z,133.03
2018-12-12T14:24:58.493Z,144.43
2018-12-12T14:27:05.261Z,140.67
2018-12-12T14:29:12.401Z,186.53
2018-12-12T14:31:19.078Z,190.60
2018-12-12T14:33:25.925Z,209.23
2018-12-12T14:35:32.783Z,224.60
2018-12-12T14:37:39.496Z,225.03
2018-12-12T14:39:46.452Z,244.47
2018-12-12T14:41:53.654Z,241.23
2018-12-12T14:44:00.375Z,239.37
2018-12-12T14:46:07.283Z,245.47
2018-12-12T14:48:14.499Z,242.33
2018-12-12T14:50:21.435Z,244.00
2018-12-12T14:52:28.224Z,261.03
2018-12-12T14:54:35.260Z,260.37
2018-12-12T14:56:42.604Z,270.47
2018-12-12T14:58:49.671Z,247.83
2018-12-12T15:00:56.490Z,247.10
2018-12-12T15:03:03.659Z,266.63
2018-12-12T15:05:10.543Z,254.13
2018-12-12T15:07:17.554Z,268.03
2018-12-12T15:09:24.514Z,261.60
2018-12-12T15:11:31.394Z,252.03
2018-12-12T15:13:38.193Z,270.27
2018-12-12T15:15:44.871Z,280.33
2018-12-12T15:17:51.754Z,295.93
2018-12-12T15:19:58.610Z,285.53
2018-12-12T15:22:05.525Z,295.20
2018-12-12T15:24:12.182Z,307.57
2018-12-12T15:26:19.038Z,293.30
2018-12-12T15:28:26.142Z,297.57
2018-12-12T15:30:33.445Z,307.23
2018-12-12T15:32:40.516Z,313.53
2018-12-12T15:34:47.447Z,302.27
2018-12-12T15:36:54.102Z,306.70
2018-12-12T15:39:00.887Z,305.37
2018-12-12T15:41:07.732Z,304.83
2018-12-12T15:43:14.630Z,308.33
2018-12-12T15:45:21.505Z,320.97
2018-12-12T15:47:28.406Z,328.53
2018-12-12T15:49:35.255Z,317.27
2018-12-12T15:51:42.055Z,319.50
2018-12-12T15:53:48.861Z,321.90
2018-12-12T15:55:55.544Z,327.00
2018-12-12T15:59:06.779Z,325.10
2018-12-12T16:01:13.768Z,251.70
2018-12-12T16:03:20.750Z,242.43
2018-12-12T16:05:27.863Z,218.47
2018-12-12T16:07:34.685Z,208.27
2018-12-12T16:09:42.522Z,208.00
2018-12-12T16:11:49.386Z,206.70
2018-12-12T16:13:56.167Z,202.33
2018-12-12T16:16:03.861Z,194.83
2018-12-12T16:18:10.628Z,197.47
2018-12-12T16:20:17.345Z,188.40
2018-12-12T16:22:24.331Z,186.90
2018-12-12T16:24:31.131Z,197.13
2018-12-12T16:26:37.789Z,187.07
2018-12-12T16:28:45.147Z,185.73
2018-12-12T16:30:51.767Z,176.97
2018-12-12T16:33:00.154Z,170.07
2018-12-12T16:35:07.606Z,170.80
2018-12-12T16:37:15.009Z,173.17
2018-12-12T16:39:22.126Z,164.97
2018-12-12T16:41:29.038Z,165.87
2018-12-12T16:43:35.827Z,139.73
2018-12-12T16:45:42.694Z,123.57
2018-12-12T16:47:49.573Z,117.33
2018-12-12T16:49:57.181Z,116.87
2018-12-12T16:52:04.154Z,110.27
2018-12-12T16:54:11.042Z,100.80
2018-12-12T16:56:18.050Z,103.03
2018-12-12T16:58:25.849Z,100.00
2018-12-12T17:00:33.179Z,96.50
2018-12-12T17:02:39.869Z,88.77
2018-12-12T17:04:46.747Z,87.57
2018-12-12T17:06:53.354Z,87.73
2018-12-12T17:09:00.259Z,88.27
2018-12-12T17:11:07.835Z,80.97
2018-12-12T17:13:15.250Z,82.67
2018-12-12T17:15:22.119Z,82.60
2018-12-12T17:17:28.729Z,82.90
2018-12-12T17:19:35.495Z,84.77
2018-12-12T17:21:42.805Z,83.17
2018-12-12T17:23:49.447Z,82.97
2018-12-12T17:25:56.353Z,91.10
2018-12-12T17:28:03.221Z,80.03
2018-12-12T17:30:10.511Z,82.40
2018-12-12T17:32:17.223Z,82.23
2018-12-12T17:34:24.939Z,74.80
2018-12-12T17:36:32.073Z,81.03
2018-12-12T17:38:39.025Z,81.57
2018-12-12T17:40:45.835Z,74.27
2018-12-12T17:42:52.691Z,76.03
2018-12-12T17:44:59.527Z,74.53
2018-12-12T17:47:06.458Z,77.13
2018-12-12T17:49:13.478Z,73.07
2018-12-12T17:51:20.286Z,79.13
2018-12-12T17:53:27.213Z,76.37
2018-12-12T17:55:33.989Z,81.10
2018-12-12T17:57:41.081Z,71.33
2018-12-12T17:59:47.858Z,74.80
2018-12-12T18:01:54.860Z,73.60
2018-12-12T18:04:01.712Z,69.77
2018-12-12T18:06:08.400Z,66.93
2018-12-12T18:08:15.092Z,74.37
2018-12-12T18:10:21.957Z,70.93
2018-12-12T18:12:29.056Z,64.80
2018-12-12T18:14:35.813Z,65.87
2018-12-12T18:16:42.945Z,63.73
2018-12-12T18:18:49.806Z,58.73
2018-12-12T18:20:56.699Z,60.60
2018-12-12T18:23:03.711Z,54.47
2018-12-12T18:25:10.521Z,54.97
2018-12-12T18:27:17.287Z,55.90
2018-12-12T18:29:25.030Z,54.27
2018-12-12T18:31:31.833Z,49.63
2018-12-12T18:33:39.070Z,56.03
2018-12-12T18:35:45.795Z,52.90
2018-12-12T18:37:52.838Z,52.27
2018-12-12T18:39:59.674Z,50.37
2018-12-12T18:42:06.385Z,49.90
2018-12-12T18:44:13.093Z,49.43
2018-12-12T18:46:20.501Z,49.73
2018-12-12T18:48:27.373Z,46.30
2018-12-12T18:50:35.089Z,47.27
2018-12-12T18:52:41.773Z,45.67
2018-12-12T18:54:48.985Z,47.73
2018-12-12T18:56:56.610Z,47.83
2018-12-12T18:59:03.361Z,45.73
2018-12-12T19:01:10.312Z,53.50
2018-12-12T19:03:17.065Z,47.70
2018-12-12T19:05:28.279Z,51.00
2018-12-12T19:07:33.041Z,46.43
2018-12-12T19:09:39.832Z,61.93
2018-12-12T19:11:47.083Z,48.10
2018-12-12T19:13:53.950Z,57.10
2018-12-12T19:16:00.610Z,62.23
2018-12-12T19:18:07.494Z,63.10
2018-12-12T19:20:14.058Z,64.37
2018-12-12T19:22:20.706Z,64.13
2018-12-12T19:24:27.606Z,66.53
2018-12-12T19:26:34.510Z,66.03
2018-12-12T19:28:41.395Z,66.87
2018-12-12T19:30:48.463Z,64.47
2018-12-12T19:32:55.870Z,66.40
2018-12-12T19:35:02.690Z,62.53
2018-12-12T19:37:09.434Z,68.17
2018-12-12T19:39:16.298Z,59.63
2018-12-12T19:41:23.412Z,64.87
2018-12-12T19:43:30.301Z,66.17
2018-12-12T19:45:37.042Z,59.33
2018-12-12T19:47:43.888Z,59.00
2018-12-12T19:49:50.941Z,57.57
2018-12-12T19:51:57.633Z,58.57
2018-12-12T19:54:04.333Z,58.90
2018-12-12T19:56:11.300Z,57.70
2018-12-12T19:58:18.309Z,56.63
2018-12-12T20:00:25.067Z,57.53
2018-12-12T20:02:31.758Z,56.93
2018-12-12T20:04:38.754Z,51.73
2018-12-12T20:06:45.517Z,58.97
2018-12-12T20:08:52.514Z,57.00
2018-12-12T20:10:59.524Z,52.23
2018-12-12T20:13:06.028Z,48.97
2018-12-12T20:15:16.578Z,48.93
2018-12-12T20:17:23.364Z,49.93
2018-12-12T20:19:30.189Z,50.77
2018-12-12T20:21:36.873Z,48.83
2018-12-12T20:23:43.581Z,52.97
2018-12-12T20:25:50.635Z,49.27
2018-12-12T20:27:57.433Z,45.37
2018-12-12T20:30:04.285Z,45.63
2018-12-12T20:32:11.125Z,45.73
2018-12-12T20:34:18.062Z,41.17
2018-12-12T20:36:24.656Z,38.80
2018-12-12T20:38:31.267Z,37.00
2018-12-12T20:40:38.234Z,35.33
2018-12-12T20:42:44.951Z,40.30
2018-12-12T20:44:51.784Z,37.90
2018-12-12T20:46:58.379Z,36.50
2018-12-12T20:49:06.330Z,34.87
2018-12-12T20:51:13.264Z,35.00
2018-12-12T20:53:19.902Z,34.90
2018-12-12T20:55:26.936Z,36.00
2018-12-12T20:57:34.403Z,33.87
2018-12-12T20:59:41.247Z,35.50
2018-12-12T21:01:48.265Z,31.90
2018-12-12T21:03:55.225Z,30.60
2018-12-12T21:06:03.086Z,32.13
2018-12-12T21:08:10.117Z,33.67
2018-12-12T21:10:17.004Z,32.93
2018-12-12T21:12:23.929Z,30.10
2018-12-12T21:14:30.910Z,28.77
2018-12-12T21:16:37.863Z,30.03
2018-12-12T21:18:44.711Z,29.90
2018-12-12T21:20:51.486Z,32.17
2018-12-12T21:22:58.145Z,30.97
2018-12-12T21:25:04.991Z,33.03
2018-12-12T21:27:12.147Z,29.93
2018-12-12T21:29:19.072Z,28.50
2018-12-12T21:31:25.698Z,28.73
2018-12-12T21:33:32.386Z,31.70
2018-12-12T21:35:39.173Z,29.03
2018-12-12T21:37:45.911Z,29.33
2018-12-12T21:39:52.629Z,30.87
2018-12-12T21:41:59.885Z,28.97
2018-12-12T21:44:06.835Z,27.37
2018-12-12T21:46:13.994Z,25.57
2018-12-12T21:48:20.975Z,26.97
2018-12-12T21:50:27.762Z,25.47
2018-12-12T21:52:34.505Z,24.50
2018-12-12T21:54:41.252Z,23.40
2018-12-12T21:56:48.486Z,22.90
2018-12-12T21:58:55.141Z,24.03
2018-12-12T22:01:02.402Z,22.90
2018-12-12T22:03:09.307Z,22.20
2018-12-12T22:05:16.488Z,23.40
2018-12-12T22:07:23.368Z,23.63
2018-12-12T22:09:30.547Z,25.10
2018-12-12T22:11:37.409Z,21.40
2018-12-12T22:13:44.277Z,19.50
2018-12-12T22:15:51.021Z,19.33
2018-12-12T22:17:57.937Z,18.97
2018-12-12T22:20:04.915Z,21.33
2018-12-12T22:22:11.848Z,19.53
2018-12-12T22:24:18.663Z,19.40
2018-12-12T22:26:25.564Z,25.50
2018-12-12T22:28:32.437Z,44.10
2018-12-12T22:30:39.339Z,51.33
2018-12-12T22:32:45.947Z,56.43
2018-12-12T22:34:52.596Z,57.67
2018-12-12T22:36:59.364Z,76.53
2018-12-12T22:39:08.108Z,81.03
2018-12-12T22:41:15.375Z,90.73
2018-12-12T22:43:22.070Z,92.87
2018-12-12T22:45:28.885Z,111.77
2018-12-12T22:47:35.610Z,86.70
2018-12-12T22:49:42.630Z,94.60
2018-12-12T22:51:49.440Z,100.30
2018-12-12T22:53:56.373Z,87.30
2018-12-12T22:56:03.366Z,108.83
2018-12-12T22:58:10.181Z,111.63
2018-12-12T23:00:22.566Z,100.60
2018-12-12T23:02:29.308Z,113.03
2018-12-12T23:04:36.071Z,121.17
2018-12-12T23:06:43.102Z,124.83
2018-12-12T23:08:50.022Z,127.50
2018-12-12T23:10:57.270Z,134.90
2018-12-12T23:13:03.896Z,117.40
2018-12-12T23:15:11.362Z,149.33
2018-12-12T23:17:18.457Z,126.00
2018-12-12T23:19:25.273Z,139.33
2018-12-12T23:21:32.345Z,138.57
2018-12-12T23:23:39.033Z,143.57
2018-12-12T23:25:45.726Z,147.43
2018-12-12T23:27:52.852Z,161.10
2018-12-12T23:29:59.532Z,150.57
2018-12-12T23:32:07.062Z,165.53
2018-12-12T23:34:13.924Z,161.27
2018-12-12T23:36:26.797Z,161.97
2018-12-12T23:38:30.229Z,159.90
2018-12-12T23:40:36.945Z,164.43
2018-12-12T23:42:44.038Z,139.90
2018-12-12T23:44:51.606Z,157.03
2018-12-12T23:46:58.651Z,135.33
2018-12-12T23:49:05.455Z,126.73
2018-12-12T23:51:12.462Z,152.03
2018-12-12T23:53:19.612Z,130.57
2018-12-12T23:55:26.746Z,148.30
2018-12-12T23:57:33.313Z,154.10
2018-12-12T23:59:40.042Z,170.70
